createdAt,value
2019-02-08T00:01:01.535Z,2.60
2019-02-08T00:03:30.819Z,2.87
2019-02-08T00:05:58.657Z,2.91
2019-02-08T00:08:26.141Z,3.19
2019-02-08T00:10:53.629Z,3.23
2019-02-08T00:13:21.044Z,3.09
2019-02-08T00:15:48.572Z,2.93
2019-02-08T00:18:15.943Z,2.86
2019-02-08T00:20:43.393Z,3.12
2019-02-08T00:23:10.832Z,3.09
2019-02-08T00:25:38.971Z,3.28
2019-02-08T00:28:06.513Z,3.42
2019-02-08T00:30:33.943Z,3.31
2019-02-08T00:33:01.334Z,3.15
2019-02-08T00:35:28.995Z,2.99
2019-02-08T00:37:56.488Z,3.00
2019-02-08T00:40:24.172Z,2.91
2019-02-08T00:42:51.638Z,3.09
2019-02-08T00:45:19.422Z,3.04
2019-02-08T00:47:46.942Z,3.01
2019-02-08T00:50:19.171Z,2.97
2019-02-08T00:52:47.657Z,2.87
2019-02-08T00:55:15.619Z,2.78
2019-02-08T00:57:42.980Z,2.77
2019-02-08T01:00:11.838Z,2.91
2019-02-08T01:02:40.375Z,2.97
2019-02-08T01:05:09.896Z,2.95
2019-02-08T01:07:37.499Z,3.01
2019-02-08T01:10:07.238Z,2.98
2019-02-08T01:12:34.722Z,2.85
2019-02-08T01:15:02.930Z,3.38
2019-02-08T01:17:30.482Z,3.29
2019-02-08T01:19:57.852Z,3.25
2019-02-08T01:22:25.262Z,3.24
2019-02-08T01:24:52.726Z,3.36
2019-02-08T01:27:20.158Z,3.31
2019-02-08T01:29:47.804Z,3.22
2019-02-08T01:32:15.195Z,3.05
2019-02-08T01:34:42.625Z,3.14
2019-02-08T01:37:10.088Z,3.10
2019-02-08T01:39:37.502Z,3.17
2019-02-08T01:42:04.978Z,3.01
2019-02-08T01:44:32.430Z,2.79
2019-02-08T01:46:59.938Z,2.75
2019-02-08T01:49:27.434Z,2.86
2019-02-08T01:51:54.834Z,2.79
2019-02-08T01:54:22.459Z,2.78
2019-02-08T01:56:49.930Z,2.80
2019-02-08T01:59:17.373Z,2.72
2019-02-08T02:01:44.811Z,2.96
2019-02-08T02:04:12.166Z,3.14
2019-02-08T02:06:39.596Z,3.32
2019-02-08T02:09:08.021Z,3.23
2019-02-08T02:11:35.377Z,3.31
2019-02-08T02:14:03.074Z,3.23
2019-02-08T02:16:30.651Z,3.17
2019-02-08T02:18:58.064Z,3.05
2019-02-08T02:21:25.454Z,3.25
2019-02-08T02:23:56.202Z,3.27
2019-02-08T02:26:22.200Z,3.22
2019-02-08T02:28:49.662Z,3.32
2019-02-08T02:31:17.081Z,3.00
2019-02-08T02:33:44.578Z,2.97
2019-02-08T02:36:12.015Z,3.14
2019-02-08T02:38:39.474Z,3.32
2019-02-08T02:41:06.939Z,3.05
2019-02-08T02:43:34.467Z,2.87
2019-02-08T02:46:01.983Z,2.88
2019-02-08T02:48:29.463Z,3.03
2019-02-08T02:50:56.839Z,2.97
2019-02-08T02:53:24.429Z,3.10
2019-02-08T02:55:51.824Z,2.93
2019-02-08T02:58:19.202Z,3.09
2019-02-08T03:00:47.670Z,3.13
2019-02-08T03:03:16.342Z,3.03
2019-02-08T03:05:44.337Z,3.18
2019-02-08T03:08:13.386Z,3.19
2019-02-08T03:10:40.961Z,2.92
2019-02-08T03:13:08.837Z,2.97
2019-02-08T03:15:36.649Z,3.07
2019-02-08T03:18:04.937Z,3.15
2019-02-08T03:20:32.456Z,3.32
2019-02-08T03:22:59.882Z,3.37
2019-02-08T03:25:27.723Z,3.62
2019-02-08T03:27:55.470Z,3.49
2019-02-08T03:30:32.089Z,3.47
2019-02-08T03:32:59.569Z,3.67
2019-02-08T03:35:27.566Z,3.56
2019-02-08T03:37:56.423Z,3.31
2019-02-08T03:40:25.793Z,3.02
2019-02-08T03:42:53.309Z,2.89
2019-02-08T03:45:21.321Z,2.89
2019-02-08T03:47:49.065Z,2.95
2019-02-08T03:50:17.631Z,2.70
2019-02-08T03:52:45.206Z,2.48
2019-02-08T03:55:14.646Z,2.59
2019-02-08T03:57:41.993Z,2.57
2019-02-08T04:00:25.933Z,2.58
2019-02-08T04:02:53.605Z,2.87
2019-02-08T04:05:21.125Z,2.78
2019-02-08T04:07:48.541Z,3.08
2019-02-08T04:10:16.504Z,2.98
2019-02-08T04:12:44.155Z,2.91
2019-02-08T04:15:14.356Z,3.21
2019-02-08T04:17:41.927Z,3.07
2019-02-08T04:20:10.613Z,2.86
2019-02-08T04:22:38.056Z,2.60
2019-02-08T04:25:06.134Z,2.43
2019-02-08T04:27:33.578Z,2.30
2019-02-08T04:30:01.211Z,2.26
2019-02-08T04:32:28.641Z,2.21
2019-02-08T04:34:56.321Z,2.16
2019-02-08T04:37:23.745Z,2.09
2019-02-08T04:39:51.177Z,1.98
2019-02-08T04:42:18.658Z,1.97
2019-02-08T04:44:46.237Z,1.93
2019-02-08T04:47:13.661Z,1.93
2019-02-08T04:49:41.158Z,1.92
2019-02-08T04:52:09.100Z,1.87
2019-02-08T04:54:38.392Z,1.89
2019-02-08T04:57:06.164Z,1.88
2019-02-08T04:59:34.189Z,1.87
2019-02-08T05:02:02.226Z,1.87
2019-02-08T05:04:29.663Z,1.88
2019-02-08T05:06:57.139Z,2.03
2019-02-08T05:09:24.580Z,1.97
2019-02-08T05:11:52.104Z,1.95
2019-02-08T05:14:19.752Z,1.93
2019-02-08T05:16:47.121Z,1.93
2019-02-08T05:19:15.118Z,1.96
2019-02-08T05:21:42.607Z,2.00
2019-02-08T05:24:10.917Z,1.96
2019-02-08T05:26:38.526Z,1.91
2019-02-08T05:29:06.100Z,1.89
2019-02-08T05:31:33.573Z,1.88
2019-02-08T05:34:00.997Z,1.87
2019-02-08T05:36:28.484Z,1.83
2019-02-08T05:38:55.904Z,1.79
2019-02-08T05:41:23.341Z,1.75
2019-02-08T05:43:50.733Z,1.69
2019-02-08T05:46:18.203Z,1.90
2019-02-08T05:48:45.792Z,1.91
2019-02-08T05:51:13.231Z,1.92
2019-02-08T05:53:40.801Z,1.93
2019-02-08T05:56:08.271Z,1.92
2019-02-08T05:58:35.802Z,1.90
2019-02-08T06:01:03.520Z,1.86
2019-02-08T06:03:30.945Z,1.95
2019-02-08T06:05:58.622Z,2.12
2019-02-08T06:08:26.018Z,2.23
2019-02-08T06:10:54.381Z,2.28
2019-02-08T06:13:21.891Z,2.30
2019-02-08T06:15:49.528Z,2.10
2019-02-08T06:18:29.337Z,2.35
2019-02-08T06:20:56.880Z,2.32
2019-02-08T06:23:24.610Z,2.50
2019-02-08T06:25:52.338Z,2.53
2019-02-08T06:28:19.725Z,2.41
2019-02-08T06:30:47.289Z,2.36
2019-02-08T06:33:14.894Z,2.34
2019-02-08T06:35:42.270Z,2.30
2019-02-08T06:38:10.254Z,2.36
2019-02-08T06:40:43.047Z,2.30
2019-02-08T06:43:10.480Z,2.34
2019-02-08T06:45:38.489Z,2.39
2019-02-08T06:48:07.379Z,2.37
2019-02-08T06:50:34.928Z,2.37
2019-02-08T06:53:02.869Z,2.60
2019-02-08T06:55:30.362Z,2.65
2019-02-08T06:58:14.800Z,2.64
2019-02-08T07:01:06.825Z,2.93
2019-02-08T07:03:47.271Z,2.98
2019-02-08T07:06:40.339Z,3.01
2019-02-08T07:09:31.840Z,2.79
2019-02-08T07:12:10.666Z,2.62
2019-02-08T07:15:03.816Z,2.50
2019-02-08T07:17:49.389Z,2.41
2019-02-08T07:20:39.084Z,2.42
2019-02-08T07:23:28.698Z,2.45
2019-02-08T07:26:07.690Z,2.62
2019-02-08T07:28:50.828Z,2.65
2019-02-08T07:31:36.694Z,2.55
2019-02-08T07:34:33.044Z,2.51
2019-02-08T07:37:23.035Z,2.43
2019-02-08T07:40:22.117Z,2.40
2019-02-08T07:43:09.459Z,2.31
2019-02-08T07:46:02.885Z,2.45
2019-02-08T07:48:52.914Z,2.47
2019-02-08T07:51:38.208Z,2.47
2019-02-08T07:54:37.641Z,2.77
2019-02-08T07:57:24.699Z,2.90
2019-02-08T08:00:05.878Z,2.84
2019-02-08T08:02:55.532Z,2.72
2019-02-08T08:05:48.513Z,2.64
2019-02-08T08:08:24.569Z,2.73
2019-02-08T08:11:01.155Z,2.76
2019-02-08T08:13:51.118Z,2.77
2019-02-08T08:16:36.899Z,2.77
2019-02-08T08:19:31.117Z,2.73
2019-02-08T08:22:21.077Z,2.65
2019-02-08T08:25:18.698Z,2.79
2019-02-08T08:28:23.914Z,2.81
2019-02-08T08:31:12.857Z,2.83
2019-02-08T08:34:04.112Z,2.93
2019-02-08T08:37:13.185Z,2.91
2019-02-08T08:40:21.438Z,2.84
2019-02-08T08:43:26.273Z,2.85
2019-02-08T08:46:40.583Z,2.89
2019-02-08T08:49:48.937Z,2.91
2019-02-08T08:53:16.381Z,3.00
2019-02-08T08:56:23.507Z,3.01
2019-02-08T08:59:24.010Z,3.15
2019-02-08T09:02:43.819Z,3.27
2019-02-08T09:05:44.384Z,3.50
2019-02-08T09:08:39.138Z,3.48
2019-02-08T09:11:57.229Z,3.48
2019-02-08T09:15:02.207Z,3.37
2019-02-08T09:17:46.687Z,3.35
2019-02-08T09:21:00.908Z,3.30
2019-02-08T09:24:00.906Z,3.48
2019-02-08T09:27:18.854Z,3.78
2019-02-08T09:30:33.881Z,3.90
2019-02-08T09:33:34.388Z,3.83
2019-02-08T09:36:47.610Z,4.05
2019-02-08T09:39:46.653Z,3.83
2019-02-08T09:43:04.917Z,3.78
2019-02-08T09:46:07.422Z,3.92
2019-02-08T09:49:16.460Z,3.83
2019-02-08T09:52:43.922Z,3.93
2019-02-08T09:55:48.562Z,3.80
2019-02-08T09:59:00.718Z,3.80
2019-02-08T10:02:06.449Z,3.63
2019-02-08T10:05:14.076Z,3.58
2019-02-08T10:08:11.884Z,3.74
2019-02-08T10:11:22.899Z,3.65
2019-02-08T10:14:24.614Z,3.63
2019-02-08T10:17:54.230Z,3.62
2019-02-08T10:21:00.391Z,3.56
2019-02-08T10:23:56.528Z,3.44
2019-02-08T10:27:14.175Z,3.68
2019-02-08T10:30:14.613Z,3.66
2019-02-08T10:33:28.538Z,3.74
2019-02-08T10:36:39.218Z,3.62
2019-02-08T10:39:44.583Z,3.70
2019-02-08T10:42:48.755Z,3.68
2019-02-08T10:45:58.045Z,3.63
2019-02-08T10:49:07.849Z,3.67
2019-02-08T10:52:35.228Z,3.66
2019-02-08T10:55:33.660Z,3.71
2019-02-08T10:58:48.607Z,3.79
2019-02-08T11:01:56.926Z,3.75
2019-02-08T11:04:51.263Z,3.85
2019-02-08T11:07:54.995Z,3.73
2019-02-08T11:10:58.683Z,3.79
2019-02-08T11:14:13.366Z,3.86
2019-02-08T11:17:38.827Z,3.64
2019-02-08T11:20:08.687Z,3.65
2019-02-08T11:22:36.066Z,3.64
2019-02-08T11:25:04.675Z,3.66
2019-02-08T11:27:32.674Z,3.60
2019-02-08T11:30:00.253Z,3.51
2019-02-08T11:32:42.591Z,3.52
2019-02-08T11:34:57.270Z,3.46
2019-02-08T11:37:25.086Z,3.54
2019-02-08T11:39:52.617Z,3.61
2019-02-08T11:42:20.073Z,3.64
2019-02-08T11:44:47.423Z,3.66
2019-02-08T11:47:14.849Z,3.68
2019-02-08T11:49:42.285Z,3.72
2019-02-08T11:52:09.732Z,3.85
2019-02-08T11:54:37.142Z,3.68
2019-02-08T11:57:04.812Z,3.66
2019-02-08T11:59:32.156Z,3.70
2019-02-08T12:01:59.590Z,3.77
2019-02-08T12:04:27.071Z,3.85
2019-02-08T12:06:54.460Z,3.93
2019-02-08T12:09:21.900Z,4.04
2019-02-08T12:11:49.332Z,3.90
2019-02-08T12:14:16.779Z,3.79
2019-02-08T12:16:44.177Z,3.66
2019-02-08T12:19:11.691Z,3.52
2019-02-08T12:21:39.236Z,3.49
2019-02-08T12:24:08.336Z,3.51
2019-02-08T12:26:38.013Z,3.53
2019-02-08T12:29:06.198Z,3.66
2019-02-08T12:31:33.692Z,3.76
2019-02-08T12:34:01.462Z,3.70
2019-02-08T12:36:29.016Z,3.81
2019-02-08T12:38:56.385Z,3.89
2019-02-08T12:41:23.973Z,3.84
2019-02-08T12:43:51.402Z,3.76
2019-02-08T12:46:18.780Z,3.73
2019-02-08T12:48:46.240Z,3.86
2019-02-08T12:51:13.855Z,3.71
2019-02-08T12:53:41.197Z,3.75
2019-02-08T12:56:08.722Z,3.74
2019-02-08T12:58:36.173Z,3.88
2019-02-08T13:01:04.011Z,3.85
2019-02-08T13:03:31.374Z,3.79
2019-02-08T13:05:58.780Z,3.85
2019-02-08T13:08:26.228Z,3.83
2019-02-08T13:10:53.654Z,3.81
2019-02-08T13:13:21.049Z,3.80
2019-02-08T13:15:48.522Z,3.79
2019-02-08T13:18:15.927Z,3.83
2019-02-08T13:20:43.310Z,3.97
2019-02-08T13:23:10.729Z,3.96
2019-02-08T13:25:38.188Z,3.80
2019-02-08T13:28:05.689Z,3.73
2019-02-08T13:30:33.378Z,3.66
2019-02-08T13:33:00.978Z,3.59
2019-02-08T13:35:28.720Z,3.90
2019-02-08T13:37:56.446Z,3.92
2019-02-08T13:40:24.056Z,3.93
2019-02-08T13:42:51.504Z,3.87
2019-02-08T13:45:19.232Z,3.82
2019-02-08T13:47:46.766Z,3.78
2019-02-08T13:50:19.874Z,4.01
2019-02-08T13:52:47.617Z,3.92
2019-02-08T13:55:15.641Z,3.85
2019-02-08T13:57:43.192Z,3.70
2019-02-08T14:00:14.796Z,3.55
2019-02-08T14:02:42.721Z,3.43
2019-02-08T14:05:10.704Z,3.35
2019-02-08T14:07:38.161Z,3.37
2019-02-08T14:10:07.657Z,3.42
2019-02-08T14:12:35.043Z,3.39
2019-02-08T14:15:03.600Z,3.45
2019-02-08T14:17:31.126Z,3.44
2019-02-08T14:19:58.627Z,3.41
2019-02-08T14:22:26.097Z,3.45
2019-02-08T14:24:53.512Z,3.33
2019-02-08T14:27:21.173Z,3.41
2019-02-08T14:29:48.964Z,3.44
2019-02-08T14:32:16.396Z,3.46
2019-02-08T14:34:43.976Z,3.43
2019-02-08T14:37:11.608Z,3.37
2019-02-08T14:39:39.035Z,3.38
2019-02-08T14:42:06.410Z,3.37
2019-02-08T14:44:34.175Z,3.38
2019-02-08T14:47:01.602Z,3.47
2019-02-08T14:49:28.964Z,3.47
2019-02-08T14:51:56.429Z,3.34
2019-02-08T14:54:23.867Z,3.34
2019-02-08T14:56:51.256Z,3.32
2019-02-08T14:59:18.712Z,3.33
2019-02-08T15:01:46.160Z,3.37
2019-02-08T15:04:13.715Z,3.27
2019-02-08T15:06:41.269Z,3.22
2019-02-08T15:09:10.178Z,3.22
2019-02-08T15:11:37.722Z,3.34
2019-02-08T15:14:05.240Z,3.30
2019-02-08T15:16:32.757Z,3.24
2019-02-08T15:19:00.196Z,3.17
2019-02-08T15:21:27.631Z,3.20
2019-02-08T15:23:56.437Z,3.24
2019-02-08T15:26:24.142Z,3.31
2019-02-08T15:28:51.793Z,3.26
2019-02-08T15:31:19.249Z,3.26
2019-02-08T15:33:46.609Z,3.17
2019-02-08T15:36:14.045Z,3.32
2019-02-08T15:38:41.639Z,3.20
2019-02-08T15:41:09.214Z,3.26
2019-02-08T15:43:36.715Z,3.28
2019-02-08T15:46:05.577Z,3.30
2019-02-08T15:48:33.000Z,3.28
2019-02-08T15:51:00.502Z,3.32
2019-02-08T15:53:27.959Z,3.32
2019-02-08T15:55:59.004Z,3.33
2019-02-08T15:58:26.736Z,3.25
2019-02-08T16:00:54.112Z,3.07
2019-02-08T16:03:21.827Z,2.93
2019-02-08T16:05:49.489Z,2.83
2019-02-08T16:08:16.926Z,2.84
2019-02-08T16:10:44.533Z,2.75
2019-02-08T16:13:12.170Z,2.69
2019-02-08T16:15:39.994Z,2.59
2019-02-08T16:18:07.907Z,2.72
2019-02-08T16:20:35.454Z,2.64
2019-02-08T16:23:04.169Z,2.75
2019-02-08T16:25:32.329Z,2.65
2019-02-08T16:27:59.895Z,2.79
2019-02-08T16:30:28.670Z,2.79
2019-02-08T16:32:56.242Z,2.68
2019-02-08T16:35:24.133Z,2.56
2019-02-08T16:37:52.197Z,2.87
2019-02-08T16:40:24.275Z,2.86
2019-02-08T16:42:51.807Z,2.72
2019-02-08T16:45:22.085Z,2.80
2019-02-08T16:47:51.059Z,3.07
2019-02-08T16:50:20.218Z,3.02
2019-02-08T16:52:47.834Z,3.03
2019-02-08T16:55:16.054Z,2.96
2019-02-08T16:57:47.826Z,2.83
2019-02-08T17:00:21.993Z,2.72
2019-02-08T17:02:49.428Z,2.70
2019-02-08T17:05:18.246Z,2.69
2019-02-08T17:07:45.871Z,2.68
2019-02-08T17:10:14.485Z,2.70
2019-02-08T17:12:41.987Z,2.73
2019-02-08T17:15:12.353Z,2.70
2019-02-08T17:17:39.938Z,2.85
2019-02-08T17:20:11.023Z,2.72
2019-02-08T17:22:38.672Z,2.79
2019-02-08T17:25:06.237Z,2.72
2019-02-08T17:27:33.853Z,2.67
2019-02-08T17:30:01.352Z,2.75
2019-02-08T17:32:29.202Z,2.83
2019-02-08T17:34:56.646Z,2.80
2019-02-08T17:37:23.989Z,3.00
2019-02-08T17:39:51.448Z,3.02
2019-02-08T17:42:19.002Z,2.89
2019-02-08T17:44:46.505Z,2.84
2019-02-08T17:47:13.939Z,2.74
2019-02-08T17:49:41.539Z,2.72
2019-02-08T17:52:09.123Z,2.66
2019-02-08T17:54:36.702Z,2.76
2019-02-08T17:57:06.003Z,2.72
2019-02-08T17:59:33.661Z,2.77
2019-02-08T18:02:01.134Z,2.63
2019-02-08T18:04:28.577Z,2.72
2019-02-08T18:06:56.152Z,2.65
2019-02-08T18:09:23.778Z,2.75
2019-02-08T18:11:51.190Z,2.80
2019-02-08T18:14:18.598Z,2.72
2019-02-08T18:16:46.025Z,2.73
2019-02-08T18:19:13.443Z,2.87
2019-02-08T18:21:40.892Z,2.88
2019-02-08T18:24:08.390Z,2.98
2019-02-08T18:26:35.816Z,3.20
2019-02-08T18:29:03.889Z,3.26
2019-02-08T18:31:31.381Z,3.19
2019-02-08T18:33:58.945Z,3.20
2019-02-08T18:36:26.432Z,3.34
2019-02-08T18:38:53.884Z,3.25
2019-02-08T18:41:21.349Z,3.23
2019-02-08T18:43:48.891Z,3.22
2019-02-08T18:46:16.404Z,3.53
2019-02-08T18:48:43.999Z,3.48
2019-02-08T18:51:11.694Z,3.29
2019-02-08T18:53:39.242Z,3.19
2019-02-08T18:56:06.724Z,3.07
2019-02-08T18:58:34.194Z,3.14
2019-02-08T19:01:02.271Z,3.14
2019-02-08T19:03:29.996Z,3.30
2019-02-08T19:05:57.494Z,3.21
2019-02-08T19:08:24.953Z,3.12
2019-02-08T19:10:52.327Z,3.03
2019-02-08T19:13:19.777Z,3.00
2019-02-08T19:15:47.356Z,2.99
2019-02-08T19:18:14.875Z,2.95
2019-02-08T19:20:42.529Z,2.87
2019-02-08T19:23:10.032Z,2.74
2019-02-08T19:25:39.372Z,2.84
2019-02-08T19:28:07.722Z,2.70
2019-02-08T19:30:36.743Z,2.80
2019-02-08T19:33:04.557Z,2.86
2019-02-08T19:35:31.968Z,2.96
2019-02-08T19:37:59.477Z,3.05
2019-02-08T19:40:28.917Z,2.96
2019-02-08T19:42:56.380Z,3.00
2019-02-08T19:45:24.197Z,2.95
2019-02-08T19:47:51.678Z,2.81
2019-02-08T19:50:27.297Z,3.12
2019-02-08T19:52:54.871Z,3.16
2019-02-08T19:55:22.524Z,3.07
2019-02-08T19:57:50.029Z,3.02
2019-02-08T20:00:19.669Z,3.13
2019-02-08T20:02:48.708Z,3.17
2019-02-08T20:05:18.512Z,3.07
2019-02-08T20:07:46.537Z,3.06
2019-02-08T20:10:16.723Z,3.02
2019-02-08T20:12:44.643Z,3.13
2019-02-08T20:15:14.391Z,3.08
2019-02-08T20:17:41.824Z,3.12
2019-02-08T20:20:09.354Z,3.00
2019-02-08T20:22:36.780Z,2.88
2019-02-08T20:25:06.755Z,2.85
2019-02-08T20:27:34.152Z,2.80
2019-02-08T20:30:01.691Z,2.73
2019-02-08T20:32:29.044Z,2.69
2019-02-08T20:34:56.593Z,2.69
2019-02-08T20:37:24.091Z,2.66
2019-02-08T20:39:51.497Z,2.62
2019-02-08T20:42:18.929Z,2.65
2019-02-08T20:44:46.364Z,2.66
2019-02-08T20:47:14.818Z,2.79
2019-02-08T20:49:42.353Z,2.73
2019-02-08T20:52:09.894Z,2.69
2019-02-08T20:54:37.322Z,2.60
2019-02-08T20:57:05.664Z,2.54
2019-02-08T20:59:33.122Z,2.53
2019-02-08T21:02:00.924Z,2.52
2019-02-08T21:04:28.738Z,2.58
2019-02-08T21:06:56.207Z,2.62
2019-02-08T21:09:23.717Z,2.60
2019-02-08T21:11:51.116Z,2.54
2019-02-08T21:14:18.473Z,2.66
2019-02-08T21:16:45.937Z,2.72
2019-02-08T21:19:13.334Z,2.71
2019-02-08T21:21:40.809Z,2.78
2019-02-08T21:24:08.231Z,2.71
2019-02-08T21:26:35.634Z,2.62
2019-02-08T21:29:03.886Z,2.63
2019-02-08T21:31:31.358Z,2.65
2019-02-08T21:33:58.760Z,2.65
2019-02-08T21:36:26.142Z,2.55
2019-02-08T21:38:53.691Z,2.56
2019-02-08T21:41:21.217Z,2.52
2019-02-08T21:43:48.626Z,2.56
2019-02-08T21:46:16.079Z,2.60
2019-02-08T21:48:43.605Z,2.71
2019-02-08T21:51:11.149Z,2.71
2019-02-08T21:53:38.505Z,2.67
2019-02-08T21:56:06.134Z,2.54
2019-02-08T21:58:33.674Z,2.58
2019-02-08T22:01:01.120Z,2.56
2019-02-08T22:03:28.553Z,2.54
2019-02-08T22:05:59.375Z,2.48
2019-02-08T22:08:26.832Z,2.51
2019-02-08T22:10:54.239Z,2.54
2019-02-08T22:13:21.705Z,2.52
2019-02-08T22:15:49.209Z,2.55
2019-02-08T22:18:16.660Z,2.52
2019-02-08T22:20:44.107Z,2.56
2019-02-08T22:23:11.502Z,2.59
2019-02-08T22:25:39.460Z,2.54
2019-02-08T22:28:07.125Z,2.57
2019-02-08T22:30:34.909Z,2.54
2019-02-08T22:33:03.005Z,2.53
2019-02-08T22:35:30.457Z,2.54
2019-02-08T22:37:57.886Z,2.53
2019-02-08T22:40:25.389Z,2.52
2019-02-08T22:42:53.124Z,2.59
2019-02-08T22:45:31.462Z,2.62
2019-02-08T22:47:59.396Z,2.61
2019-02-08T22:50:28.510Z,2.57
2019-02-08T22:52:56.348Z,2.56
2019-02-08T22:55:25.744Z,2.58
2019-02-08T22:57:53.230Z,2.57
2019-02-08T23:01:05.336Z,2.56
2019-02-08T23:03:35.041Z,2.53
2019-02-08T23:06:04.062Z,2.46
2019-02-08T23:08:31.467Z,2.42
2019-02-08T23:10:59.130Z,2.42
2019-02-08T23:13:26.748Z,2.42
2019-02-08T23:15:54.573Z,2.40
2019-02-08T23:18:21.989Z,2.39
2019-02-08T23:20:49.393Z,2.41
2019-02-08T23:23:16.891Z,2.39
2019-02-08T23:25:44.329Z,2.38
2019-02-08T23:28:11.745Z,2.43
2019-02-08T23:30:39.268Z,2.35
2019-02-08T23:33:06.684Z,2.44
2019-02-08T23:35:34.188Z,2.46
2019-02-08T23:38:01.719Z,2.48
2019-02-08T23:40:29.256Z,2.52
2019-02-08T23:42:56.870Z,2.70
2019-02-08T23:45:24.523Z,2.78
2019-02-08T23:47:51.919Z,2.88
2019-02-08T23:50:19.495Z,2.77
2019-02-08T23:52:47.153Z,2.68
2019-02-08T23:55:15.723Z,2.63
2019-02-08T23:57:43.082Z,2.83
